Time;durP1;ratioP1;P1;durP2;ratioP2;P2;SDS_P1;SDS_P2;PMS_P1;PMS_P2;Temp;Humidity;BMP_temperature;BMP_pressure;BME280_temperature;BME280_humidity;BME280_pressure;Samples;Min_cycle;Max_cycle;Signal;HPM_P1;HPM_P2
2022/01/09 00:00:52;;;;;;;1.45;1.45;;;;;;;2.99;80.76;96311.63;4076575;29;20239;-59
2022/01/09 00:02:54;;;;;;;1.60;1.50;;;;;;;2.98;80.95;96312.69;4079745;29;20219;-59
2022/01/09 00:04:56;;;;;;;2.08;1.95;;;;;;;2.98;80.86;96310.00;4093380;28;20219;-59
2022/01/09 00:06:58;;;;;;;2.00;1.90;;;;;;;2.95;80.52;96307.00;4095530;28;20216;-59
2022/01/09 00:08:59;;;;;;;1.77;1.67;;;;;;;2.97;80.78;96304.84;4095532;28;20740;-58
2022/01/09 00:11:01;;;;;;;1.27;1.17;;;;;;;3.06;81.00;96297.91;4085745;28;20290;-60
2022/01/09 00:13:03;;;;;;;1.45;1.40;;;;;;;3.04;80.93;96290.06;4113536;28;20218;-60
2022/01/09 00:15:05;;;;;;;2.50;1.90;;;;;;;3.15;80.86;96286.34;4110518;28;20206;-59
2022/01/09 00:17:07;;;;;;;1.50;1.40;;;;;;;3.12;81.06;96284.19;4089426;28;20709;-58
2022/01/09 00:19:10;;;;;;;1.67;1.58;;;;;;;3.11;81.41;96284.44;4111765;28;20272;-58
2022/01/09 00:21:11;;;;;;;1.60;1.50;;;;;;;3.19;80.87;96275.84;4111494;28;20254;-59
2022/01/09 00:23:13;;;;;;;1.45;1.35;;;;;;;3.27;80.91;96269.97;4112936;28;20210;-59
2022/01/09 00:25:20;;;;;;;1.40;1.35;;;;;;;3.23;81.25;96266.97;4099323;28;20263;-59
2022/01/09 00:27:22;;;;;;;1.27;1.27;;;;;;;3.38;81.07;96261.69;4097329;28;20266;-59
2022/01/09 00:29:24;;;;;;;1.00;1.00;;;;;;;3.45;81.32;96254.16;4081649;29;20251;-60
2022/01/09 00:31:26;;;;;;;0.90;0.90;;;;;;;3.52;81.12;96257.44;4113056;28;21425;-57
2022/01/09 00:33:27;;;;;;;0.93;0.93;;;;;;;3.54;80.69;96260.69;4073689;29;20236;-58
2022/01/09 00:35:29;;;;;;;1.40;1.17;;;;;;;3.66;81.03;96247.78;4099546;28;20219;-58
2022/01/09 00:37:31;;;;;;;0.88;0.88;;;;;;;3.63;81.34;96240.22;4095387;28;20216;-58
2022/01/09 00:39:32;;;;;;;1.42;0.77;;;;;;;3.76;81.27;96239.75;4092238;28;20222;-58
2022/01/09 00:41:34;;;;;;;0.90;0.90;;;;;;;3.77;81.27;96240.53;4112392;28;20293;-58
2022/01/09 00:43:36;;;;;;;1.30;1.20;;;;;;;3.79;81.45;96238.38;4112014;28;20213;-59
2022/01/09 00:45:39;;;;;;;1.15;1.15;;;;;;;3.79;81.31;96243.78;4109219;28;20249;-58
2022/01/09 00:47:42;;;;;;;0.80;0.80;;;;;;;3.86;81.40;96237.06;4097881;28;20776;-59
2022/01/09 00:49:43;;;;;;;0.82;0.82;;;;;;;3.94;81.08;96231.16;4095554;28;20307;-57
2022/01/09 00:51:45;;;;;;;0.75;0.70;;;;;;;3.95;80.99;96227.38;4112428;28;20210;-58
2022/01/09 00:53:47;;;;;;;0.80;0.80;;;;;;;4.02;81.39;96233.38;4098283;28;20219;-56
2022/01/09 00:55:48;;;;;;;1.00;1.00;;;;;;;4.03;80.87;96224.19;4112796;28;20234;-57
2022/01/09 00:57:50;;;;;;;0.90;0.90;;;;;;;4.04;81.16;96231.22;4072792;29;20223;-58
2022/01/09 00:59:55;;;;;;;0.95;0.95;;;;;;;4.06;81.25;96223.63;4090125;28;20238;-56
2022/01/09 01:01:57;;;;;;;0.80;0.80;;;;;;;4.14;81.05;96223.09;4097969;28;20242;-57
2022/01/09 01:03:58;;;;;;;0.77;0.77;;;;;;;4.16;81.12;96229.09;4110582;28;20214;-57
2022/01/09 01:06:00;;;;;;;0.73;0.73;;;;;;;4.16;81.37;96222.84;4072549;28;20267;-58
2022/01/09 01:08:02;;;;;;;1.40;0.80;;;;;;;4.17;80.90;96219.88;4076412;29;20208;-59
2022/01/09 01:10:04;;;;;;;0.85;0.85;;;;;;;4.24;81.31;96220.44;4081990;29;20706;-59
2022/01/09 01:12:06;;;;;;;0.90;0.90;;;;;;;4.25;81.25;96227.47;4113796;28;20210;-60
2022/01/09 01:14:08;;;;;;;1.55;1.55;;;;;;;4.21;81.22;96226.38;4094997;28;20239;-60
2022/01/09 01:16:10;;;;;;;1.00;1.00;;;;;;;4.22;80.88;96219.91;4080853;29;20224;-59
2022/01/09 01:18:12;;;;;;;0.90;0.90;;;;;;;4.31;81.04;96221.00;4113830;28;20270;-59
2022/01/09 01:20:14;;;;;;;1.30;1.00;;;;;;;4.25;80.96;96216.66;4095170;28;20355;-58
2022/01/09 01:22:16;;;;;;;0.80;0.80;;;;;;;4.30;81.15;96224.81;4095345;28;20290;-60
2022/01/09 01:24:20;;;;;;;1.10;1.10;;;;;;;4.28;81.25;96215.31;4076097;29;20752;-59
2022/01/09 01:26:21;;;;;;;0.73;0.73;;;;;;;4.33;81.37;96218.84;4096623;28;20211;-60
2022/01/09 01:28:23;;;;;;;0.80;0.80;;;;;;;4.30;81.48;96219.38;4097103;28;20207;-60
2022/01/09 01:30:25;;;;;;;0.90;0.90;;;;;;;4.36;81.18;96212.91;4079112;29;20243;-59
2022/01/09 01:32:27;;;;;;;0.80;0.80;;;;;;;4.35;80.99;96215.88;4100972;28;20288;-59
2022/01/09 01:34:28;;;;;;;0.80;0.80;;;;;;;4.43;81.02;96216.16;4108386;28;20212;-58
2022/01/09 01:36:30;;;;;;;1.10;0.93;;;;;;;4.40;80.90;96219.41;4093402;28;20251;-60
2022/01/09 01:38:33;;;;;;;0.90;0.90;;;;;;;4.37;81.03;96211.00;4093743;28;20199;-59
2022/01/09 01:40:34;;;;;;;1.20;1.00;;;;;;;4.34;81.06;96220.47;4080803;29;20753;-60
2022/01/09 01:42:36;;;;;;;0.93;0.93;;;;;;;4.38;80.88;96218.84;4092626;28;20247;-59
2022/01/09 01:44:43;;;;;;;0.95;0.95;;;;;;;4.41;80.83;96223.72;4084333;29;20228;-60
2022/01/09 01:46:46;;;;;;;0.93;0.93;;;;;;;4.39;80.93;96225.88;4088403;28;20268;-59
2022/01/09 01:48:48;;;;;;;1.00;1.00;;;;;;;4.39;80.81;96233.22;4095472;28;20230;-58
2022/01/09 01:50:50;;;;;;;1.85;0.80;;;;;;;4.38;81.23;96234.28;4098310;28;20219;-57
2022/01/09 01:52:53;;;;;;;0.98;0.98;;;;;;;4.38;81.13;96236.97;4111134;28;20246;-59
2022/01/09 01:54:55;;;;;;;1.23;1.20;;;;;;;4.41;80.98;96228.34;4095783;28;20267;-57
2022/01/09 01:56:57;;;;;;;0.82;0.82;;;;;;;4.44;80.87;96236.75;4109775;28;20294;-59
2022/01/09 01:58:59;;;;;;;0.85;0.85;;;;;;;4.42;81.19;96238.09;4106688;28;20234;-59
2022/01/09 02:01:02;;;;;;;1.70;0.90;;;;;;;4.46;81.05;96239.97;4107630;28;20214;-56
2022/01/09 02:03:04;;;;;;;1.05;1.05;;;;;;;4.47;81.05;96241.59;4089579;28;20218;-59
2022/01/09 02:05:06;;;;;;;1.70;0.90;;;;;;;4.45;80.76;96246.47;4094960;28;20230;-58
2022/01/09 02:07:08;;;;;;;0.95;0.88;;;;;;;4.43;80.83;96254.06;4094115;28;20208;-60
2022/01/09 02:09:10;;;;;;;0.90;0.90;;;;;;;4.45;80.90;96248.38;4097261;28;20223;-58
2022/01/09 02:11:12;;;;;;;1.10;1.00;;;;;;;4.44;81.28;96252.16;4095779;28;20215;-59
2022/01/09 02:13:16;;;;;;;0.73;0.73;;;;;;;4.42;81.08;96255.16;4095663;28;20238;-60
2022/01/09 02:15:38;;;;;;;0.80;0.80;;;;;;;4.40;80.98;96262.69;4080173;28;20208;-58
2022/01/09 02:17:43;;;;;;;1.00;1.00;;;;;;;4.42;80.79;96274.09;4076608;29;20255;-59
2022/01/09 02:19:58;;;;;;;0.98;0.98;;;;;;;4.44;80.95;96263.81;4109609;28;20234;-57
2022/01/09 02:22:00;;;;;;;0.93;0.93;;;;;;;4.34;81.35;96280.00;4093263;28;20681;-57
2022/01/09 02:24:01;;;;;;;1.33;0.93;;;;;;;4.38;81.24;96275.69;4089628;28;20590;-59
2022/01/09 02:26:03;;;;;;;0.80;0.80;;;;;;;4.41;81.23;96280.56;4091513;28;20255;-59
2022/01/09 02:28:06;;;;;;;0.93;0.93;;;;;;;4.37;81.18;96284.91;4105233;28;21408;-59
2022/01/09 02:30:08;;;;;;;1.02;1.02;;;;;;;4.37;81.68;96290.31;4104940;28;20257;-59
2022/01/09 02:32:10;;;;;;;1.85;0.82;;;;;;;4.38;81.33;96288.41;4071298;29;20207;-59
2022/01/09 02:34:12;;;;;;;1.60;0.90;;;;;;;4.40;81.68;96297.09;4092060;28;20225;-59
2022/01/09 02:36:14;;;;;;;2.08;0.90;;;;;;;4.37;81.38;96303.84;4093257;28;20649;-59
2022/01/09 02:38:15;;;;;;;0.80;0.80;;;;;;;4.47;81.46;96311.19;4089045;28;20245;-59
2022/01/09 02:40:18;;;;;;;1.80;0.98;;;;;;;4.48;81.58;96321.75;4089977;28;20228;-59
2022/01/09 02:42:22;;;;;;;1.20;1.20;;;;;;;4.44;81.36;96323.38;4108448;28;20218;-60
2022/01/09 02:44:24;;;;;;;1.50;1.40;;;;;;;4.43;81.85;96327.16;4086959;28;20250;-60
2022/01/09 02:48:34;;;;;;;1.00;0.90;;;;;;;4.46;81.89;96332.03;4112146;28;20206;-59
2022/01/09 02:50:40;;;;;;;1.05;0.95;;;;;;;4.45;81.72;96333.13;4108885;28;20212;-60
2022/01/09 02:55:15;;;;;;;1.48;1.02;;;;;;;4.46;81.94;96352.88;4094018;28;20202;-60
2022/01/09 02:57:16;;;;;;;1.00;1.00;;;;;;;4.47;81.78;96360.72;4095347;28;20246;-60
2022/01/09 02:59:18;;;;;;;0.90;0.90;;;;;;;4.45;81.71;96368.31;4077468;28;20224;-60
2022/01/09 03:01:20;;;;;;;1.75;1.65;;;;;;;4.46;81.73;96380.75;4110898;28;20238;-59
2022/01/09 03:03:21;;;;;;;1.17;1.10;;;;;;;4.42;82.07;96404.03;4108174;28;20251;-58
2022/01/09 03:05:24;;;;;;;0.80;0.80;;;;;;;4.46;81.74;96386.16;4094807;28;20294;-60
2022/01/09 03:07:26;;;;;;;1.02;1.02;;;;;;;4.49;81.76;96396.50;4092012;28;20715;-57
2022/01/09 03:09:28;;;;;;;0.70;0.70;;;;;;;4.45;81.82;96395.38;4107963;28;20254;-61
2022/01/09 03:11:31;;;;;;;1.02;1.02;;;;;;;4.45;82.00;96411.63;4109255;28;20218;-61
2022/01/09 03:13:33;;;;;;;1.10;0.95;;;;;;;4.49;81.73;96420.84;4094347;28;20239;-59
2022/01/09 03:15:35;;;;;;;0.95;0.90;;;;;;;4.39;81.68;96426.19;4100837;28;20268;-58
2022/01/09 03:17:37;;;;;;;1.10;1.10;;;;;;;4.46;81.90;96434.09;4107434;28;20219;-58
2022/01/09 03:19:39;;;;;;;0.90;0.90;;;;;;;4.40;81.62;96435.94;4110104;28;20234;-59
2022/01/09 03:21:40;;;;;;;1.13;1.02;;;;;;;4.41;81.19;96443.00;4094873;28;20629;-59
2022/01/09 03:23:42;;;;;;;1.15;1.15;;;;;;;4.35;81.45;96451.34;4124913;28;20735;-58
2022/01/09 03:25:44;;;;;;;0.80;0.80;;;;;;;4.37;81.30;96463.56;4112337;28;20226;-60
2022/01/09 03:27:50;;;;;;;0.90;0.90;;;;;;;4.40;80.75;96468.44;4123655;28;20605;-58
2022/01/09 03:29:52;;;;;;;0.85;0.80;;;;;;;4.37;80.74;96479.78;4089647;28;20227;-60
2022/01/09 03:31:54;;;;;;;0.80;0.80;;;;;;;4.35;80.96;96491.97;4126126;28;20651;-59
2022/01/09 03:33:56;;;;;;;0.80;0.80;;;;;;;4.35;80.26;96503.59;4109184;28;20278;-59
2022/01/09 03:35:57;;;;;;;1.08;1.08;;;;;;;4.36;80.06;96510.66;4124727;28;20285;-57
2022/01/09 03:37:59;;;;;;;0.85;0.85;;;;;;;4.33;79.75;96521.97;4109947;28;20242;-59
2022/01/09 03:40:05;;;;;;;1.00;1.00;;;;;;;4.24;79.96;96526.25;4124333;28;20251;-58
2022/01/09 03:42:06;;;;;;;0.82;0.82;;;;;;;4.30;80.14;96532.50;4126004;28;20297;-57
2022/01/09 03:44:08;;;;;;;0.80;0.80;;;;;;;4.23;79.88;96538.16;4106535;28;20203;-60
2022/01/09 03:46:10;;;;;;;1.20;1.20;;;;;;;4.25;79.83;96546.00;4109199;28;20681;-58
2022/01/09 03:48:12;;;;;;;0.77;0.73;;;;;;;4.22;80.14;96547.38;4110327;28;20254;-57
2022/01/09 03:50:14;;;;;;;0.80;0.80;;;;;;;4.16;79.93;96553.81;4095071;28;20804;-58
2022/01/09 03:52:15;;;;;;;0.90;0.90;;;;;;;4.15;79.53;96560.25;4108400;28;20213;-59
2022/01/09 03:54:21;;;;;;;0.65;0.65;;;;;;;4.14;79.18;96563.25;4106471;28;20226;-57
2022/01/09 03:56:22;;;;;;;0.77;0.77;;;;;;;4.11;79.26;96577.28;4096303;28;20637;-65
2022/01/09 03:58:24;;;;;;;0.80;0.80;;;;;;;4.05;79.76;96579.13;4094132;28;20211;-58
2022/01/09 04:00:26;;;;;;;0.90;0.85;;;;;;;4.03;80.01;96573.16;4111483;28;20221;-59
2022/01/09 04:02:28;;;;;;;0.85;0.85;;;;;;;4.00;79.87;96587.19;4108615;28;20231;-59
2022/01/09 04:04:29;;;;;;;0.80;0.80;;;;;;;3.99;79.63;96590.97;4092957;28;20207;-59
2022/01/09 04:06:31;;;;;;;0.70;0.70;;;;;;;3.93;79.98;96602.81;4126415;28;20226;-59
2022/01/09 04:08:34;;;;;;;0.70;0.70;;;;;;;3.92;79.47;96606.59;4091257;28;20208;-60
2022/01/09 04:10:41;;;;;;;1.25;0.68;;;;;;;3.92;79.51;96614.72;4108381;28;20249;-59
2022/01/09 04:12:51;;;;;;;0.80;0.80;;;;;;;3.89;80.05;96634.16;4109151;28;20257;-59
2022/01/09 04:14:53;;;;;;;0.95;0.95;;;;;;;3.83;79.20;96626.22;4096833;28;20292;-59
2022/01/09 04:16:55;;;;;;;0.77;0.77;;;;;;;3.79;79.81;96638.63;4125685;28;20224;-60
2022/01/09 04:18:56;;;;;;;0.90;0.90;;;;;;;3.70;79.99;96640.97;4111288;28;20256;-59
2022/01/09 04:20:58;;;;;;;0.70;0.70;;;;;;;3.63;80.18;96650.34;4109020;28;20311;-59
2022/01/09 04:23:00;;;;;;;0.98;0.98;;;;;;;3.67;80.70;96654.97;4126105;28;20680;-59
2022/01/09 04:25:03;;;;;;;1.13;1.02;;;;;;;3.61;80.41;96653.28;4097700;28;20833;-59
2022/01/09 04:27:05;;;;;;;0.90;0.90;;;;;;;3.65;80.59;96659.84;4112212;28;20207;-59
2022/01/09 04:29:07;;;;;;;1.15;1.13;;;;;;;3.64;80.03;96663.63;4110984;28;20230;-58
2022/01/09 04:31:08;;;;;;;1.02;1.02;;;;;;;3.60;79.91;96673.28;4092319;28;20223;-60
2022/01/09 04:33:10;;;;;;;1.10;1.10;;;;;;;3.60;80.23;96675.19;4109432;28;20303;-59
2022/01/09 04:35:12;;;;;;;0.90;0.90;;;;;;;3.70;80.44;96678.84;4109888;28;20203;-58
2022/01/09 04:37:14;;;;;;;0.88;0.88;;;;;;;3.58;80.33;96686.25;4095329;28;20231;-59
2022/01/09 04:39:16;;;;;;;0.82;0.82;;;;;;;3.57;80.57;96684.63;4123938;28;20335;-59
2022/01/09 04:41:18;;;;;;;2.22;1.02;;;;;;;3.56;80.99;96684.84;4093650;28;20242;-59
2022/01/09 04:43:20;;;;;;;0.93;0.93;;;;;;;3.58;80.32;96694.34;4109784;28;20575;-60
2022/01/09 04:45:23;;;;;;;3.60;1.05;;;;;;;3.59;80.90;96701.41;4109704;28;20716;-59
2022/01/09 04:47:28;;;;;;;1.05;1.00;;;;;;;3.64;80.79;96709.56;4096445;28;20215;-60
2022/01/09 04:49:36;;;;;;;1.23;1.13;;;;;;;3.61;81.10;96717.38;4113210;28;20266;-59
2022/01/09 04:51:38;;;;;;;1.50;1.10;;;;;;;3.55;81.32;96713.75;4107764;28;20411;-60
2022/01/09 04:53:40;;;;;;;1.40;1.33;;;;;;;3.54;80.77;96722.94;4109692;28;20650;-59
2022/01/09 04:55:45;;;;;;;3.22;1.60;;;;;;;3.54;80.85;96712.13;4110430;28;20666;-60
2022/01/09 04:57:47;;;;;;;1.45;1.35;;;;;;;3.63;80.59;96717.94;4093397;28;20211;-60
2022/01/09 04:59:49;;;;;;;7.97;1.40;;;;;;;3.63;80.89;96720.63;4093079;28;20836;-60
2022/01/09 05:01:51;;;;;;;3.25;1.38;;;;;;;3.61;81.35;96737.09;4095761;28;20239;-58
2022/01/09 05:03:52;;;;;;;2.42;1.35;;;;;;;3.64;81.33;96728.50;4123597;28;20416;-58
2022/01/09 05:05:54;;;;;;;2.05;1.23;;;;;;;3.57;81.41;96738.69;4098584;28;20705;-59
2022/01/09 05:07:56;;;;;;;2.85;1.75;;;;;;;3.63;81.41;96743.09;4115969;28;20632;-58
2022/01/09 05:09:58;;;;;;;1.45;1.30;;;;;;;3.67;80.96;96749.63;4115012;28;20696;-59
2022/01/09 05:12:00;;;;;;;3.17;2.13;;;;;;;3.69;81.39;96742.09;4127774;28;20218;-59
2022/01/09 05:14:04;;;;;;;2.45;1.50;;;;;;;3.68;81.42;96751.25;4114420;28;20246;-59
2022/01/09 05:16:06;;;;;;;3.08;2.40;;;;;;;3.73;81.50;96761.34;4125940;28;20622;-60
2022/01/09 05:18:13;;;;;;;4.85;1.83;;;;;;;3.68;81.00;96759.38;4111830;28;20214;-59
2022/01/09 05:20:15;;;;;;;2.97;1.60;;;;;;;3.75;81.08;96761.91;4098934;28;20242;-59
2022/01/09 05:22:19;;;;;;;3.75;1.77;;;;;;;3.77;81.04;96771.41;4113283;28;20242;-60
2022/01/09 05:24:21;;;;;;;8.77;2.03;;;;;;;3.75;80.64;96778.94;4113516;28;20242;-59
2022/01/09 05:26:23;;;;;;;2.33;1.95;;;;;;;3.76;81.16;96780.59;4127518;28;20253;-60
2022/01/09 05:28:25;;;;;;;3.35;3.00;;;;;;;3.81;80.97;96783.34;4130503;28;20248;-58
2022/01/09 05:30:27;;;;;;;5.10;2.60;;;;;;;3.84;80.57;96787.44;4127309;28;20847;-59
2022/01/09 05:32:28;;;;;;;3.45;1.80;;;;;;;3.83;80.96;96786.63;4112218;28;20322;-59
2022/01/09 05:34:30;;;;;;;5.70;2.58;;;;;;;3.81;80.85;96794.16;4112426;28;20253;-60
2022/01/09 05:36:32;;;;;;;9.50;1.60;;;;;;;3.84;80.46;96790.97;4097942;28;20211;-58
2022/01/09 05:38:33;;;;;;;3.75;2.25;;;;;;;3.83;80.48;96797.47;4127643;28;20242;-60
2022/01/09 05:40:35;;;;;;;3.33;1.65;;;;;;;3.76;80.43;96806.81;4112957;28;20261;-59
2022/01/09 05:42:37;;;;;;;5.32;2.78;;;;;;;3.81;80.40;96820.41;4098582;28;20231;-59
2022/01/09 05:44:40;;;;;;;5.50;1.75;;;;;;;3.78;80.75;96820.88;4113964;28;20203;-59
2022/01/09 05:46:42;;;;;;;6.95;2.22;;;;;;;3.78;80.50;96816.31;4097780;28;20290;-59
2022/01/09 05:48:44;;;;;;;11.05;2.85;;;;;;;3.80;80.24;96824.19;4113529;28;20253;-58
2022/01/09 05:50:45;;;;;;;10.60;3.15;;;;;;;3.75;80.22;96827.59;4097002;28;20211;-58
2022/01/09 05:52:48;;;;;;;5.32;2.90;;;;;;;3.78;80.38;96832.53;4114264;28;20207;-56
2022/01/09 05:54:50;;;;;;;8.70;2.22;;;;;;;3.79;80.45;96838.75;4096571;29;20207;-58
2022/01/09 05:56:52;;;;;;;4.75;2.40;;;;;;;3.76;80.10;96840.09;4126071;28;20202;-57
2022/01/09 05:58:53;;;;;;;6.78;2.22;;;;;;;3.75;80.75;96843.84;4112716;28;20316;-59
2022/01/09 06:00:55;;;;;;;4.13;2.40;;;;;;;3.77;80.50;96847.13;4097928;28;20209;-58
2022/01/09 06:02:57;;;;;;;5.80;2.42;;;;;;;3.75;79.74;96849.25;4111226;28;20207;-58
2022/01/09 06:04:59;;;;;;;3.08;2.13;;;;;;;3.73;80.22;96845.97;4124120;28;20222;-59
2022/01/09 06:07:00;;;;;;;5.93;2.45;;;;;;;3.71;80.43;96858.94;4126584;28;20240;-57
2022/01/09 06:09:02;;;;;;;4.43;2.03;;;;;;;3.77;80.22;96867.94;4112719;28;20246;-58
2022/01/09 06:11:04;;;;;;;9.05;2.65;;;;;;;3.67;80.30;96863.19;4123352;28;20691;-57
2022/01/09 06:13:06;;;;;;;11.95;2.63;;;;;;;3.70;80.53;96868.13;4112692;28;20206;-58
2022/01/09 06:15:08;;;;;;;4.05;1.92;;;;;;;3.74;80.56;96880.06;4126467;28;20237;-59
2022/01/09 06:17:10;;;;;;;5.57;2.25;;;;;;;3.68;79.87;96881.06;4110947;28;20191;-58
2022/01/09 06:19:12;;;;;;;4.47;1.75;;;;;;;3.70;80.76;96889.75;4110754;28;20245;-58
2022/01/09 06:21:13;;;;;;;4.80;2.33;;;;;;;3.70;80.80;96878.94;4109082;28;20217;-56
2022/01/09 06:23:19;;;;;;;6.30;2.03;;;;;;;3.70;80.91;96884.34;4109583;28;20238;-57
2022/01/09 06:25:21;;;;;;;2.35;1.85;;;;;;;3.72;80.50;96890.31;4094431;28;20207;-58
2022/01/09 06:27:23;;;;;;;3.78;2.85;;;;;;;3.74;80.86;96892.78;4109572;28;20258;-57
2022/01/09 06:29:25;;;;;;;9.60;3.72;;;;;;;3.67;80.57;96895.63;4126956;28;20240;-57
2022/01/09 06:31:26;;;;;;;7.75;2.60;;;;;;;3.73;80.37;96897.38;4096250;28;20274;-59
2022/01/09 06:33:28;;;;;;;5.53;2.30;;;;;;;3.70;80.57;96900.56;4096553;28;20211;-59
2022/01/09 06:35:30;;;;;;;3.58;2.55;;;;;;;3.69;80.51;96904.34;4125492;28;20210;-58
2022/01/09 06:37:32;;;;;;;4.30;2.45;;;;;;;3.64;80.93;96904.25;4097086;28;20654;-60
2022/01/09 06:39:34;;;;;;;4.88;1.80;;;;;;;3.70;80.09;96916.81;4128189;28;20502;-58
2022/01/09 06:41:35;;;;;;;3.20;1.90;;;;;;;3.67;80.56;96914.56;4126293;28;20700;-58
2022/01/09 06:43:37;;;;;;;2.70;2.00;;;;;;;3.73;80.37;96920.91;4125834;28;20742;-59
2022/01/09 06:45:39;;;;;;;4.18;2.63;;;;;;;3.64;80.42;96906.97;4111445;28;20332;-59
2022/01/09 06:47:40;;;;;;;4.68;2.17;;;;;;;3.71;79.99;96915.72;4111920;28;20243;-60
2022/01/09 06:49:43;;;;;;;2.42;2.17;;;;;;;3.71;80.02;96923.84;4127648;28;20260;-58
2022/01/09 06:51:44;;;;;;;5.63;2.17;;;;;;;3.65;79.96;96927.53;4098673;28;20242;-58
2022/01/09 06:53:46;;;;;;;10.30;2.63;;;;;;;3.68;80.09;96937.03;4110845;28;20234;-57
2022/01/09 06:55:48;;;;;;;5.05;2.25;;;;;;;3.72;79.73;96935.47;4111019;28;20222;-59
2022/01/09 06:57:50;;;;;;;4.53;2.05;;;;;;;3.65;79.54;96941.06;4111472;28;20207;-59
2022/01/09 06:59:52;;;;;;;3.28;2.50;;;;;;;3.67;79.67;96938.91;4111627;28;20258;-59
2022/01/09 07:01:53;;;;;;;6.55;3.28;;;;;;;3.70;79.56;96943.00;4125985;28;20201;-58
2022/01/09 07:03:55;;;;;;;3.72;2.13;;;;;;;3.67;80.26;96947.03;4125788;28;20234;-61
2022/01/09 07:05:57;;;;;;;2.17;2.00;;;;;;;3.68;79.55;96951.38;4097460;28;20240;-58
2022/01/09 07:07:58;;;;;;;2.75;2.50;;;;;;;3.65;79.57;96946.47;4111405;28;20689;-59
2022/01/09 07:10:00;;;;;;;5.80;2.58;;;;;;;3.68;79.16;96962.19;4113782;28;20652;-59
2022/01/09 07:12:02;;;;;;;6.00;2.47;;;;;;;3.68;79.31;96978.41;4125536;28;20228;-58
2022/01/09 07:14:04;;;;;;;2.20;2.00;;;;;;;3.62;79.46;96976.69;4126872;28;20210;-58
2022/01/09 07:16:06;;;;;;;5.80;3.17;;;;;;;3.67;79.12;96982.19;4111405;28;20257;-59
2022/01/09 07:18:07;;;;;;;11.65;2.47;;;;;;;3.61;79.06;96979.66;4111100;28;20203;-58
2022/01/09 07:20:10;;;;;;;5.80;2.30;;;;;;;3.63;79.19;96991.84;4095867;28;20227;-58
2022/01/09 07:22:11;;;;;;;6.60;2.80;;;;;;;3.66;79.00;96991.34;4094163;28;20215;-58
2022/01/09 07:24:13;;;;;;;10.60;2.47;;;;;;;3.58;78.85;97004.44;4112295;28;20211;-58
2022/01/09 07:26:15;;;;;;;3.67;2.22;;;;;;;3.61;78.63;97007.47;4125344;28;20265;-59
2022/01/09 07:28:17;;;;;;;9.50;4.18;;;;;;;3.58;78.64;97016.09;4124537;28;20197;-59
2022/01/09 07:30:18;;;;;;;6.80;4.38;;;;;;;3.62;77.98;97017.25;4124478;28;20261;-58
2022/01/09 07:32:20;;;;;;;13.60;3.45;;;;;;;3.56;77.75;97028.22;4124097;28;20202;-57
2022/01/09 07:34:22;;;;;;;4.10;2.00;;;;;;;3.58;77.72;97048.53;4093573;28;20682;-58
2022/01/09 07:36:23;;;;;;;10.85;2.75;;;;;;;3.53;77.33;97051.16;4108150;28;20289;-56
2022/01/09 07:38:25;;;;;;;10.75;3.35;;;;;;;3.59;77.40;97060.16;4096570;28;20634;-58
2022/01/09 07:40:28;;;;;;;6.75;3.08;;;;;;;3.54;77.28;97079.00;4112730;28;20222;-56
2022/01/09 07:42:29;;;;;;;7.43;2.92;;;;;;;3.55;77.39;97081.47;4111929;28;20262;-57
2022/01/09 07:44:31;;;;;;;4.00;2.72;;;;;;;3.47;77.37;97089.97;4110526;28;20739;-57
2022/01/09 07:46:33;;;;;;;7.82;3.08;;;;;;;3.43;77.43;97086.09;4126512;28;20226;-56
2022/01/09 07:48:34;;;;;;;6.53;3.67;;;;;;;3.51;77.40;97087.59;4111078;28;20213;-58
2022/01/09 07:50:36;;;;;;;6.38;3.30;;;;;;;3.50;76.69;97089.50;4108626;28;20246;-57
2022/01/09 07:52:39;;;;;;;5.50;2.35;;;;;;;3.52;77.34;97094.63;4110596;28;20214;-56
2022/01/09 07:54:41;;;;;;;4.70;3.75;;;;;;;3.41;77.56;97098.22;4111258;28;20215;-58
2022/01/09 07:56:43;;;;;;;7.20;3.30;;;;;;;3.37;77.85;97099.75;4124423;28;20620;-59
2022/01/09 07:58:45;;;;;;;8.13;3.10;;;;;;;3.40;78.38;97100.09;4109263;28;20245;-58
2022/01/09 08:00:46;;;;;;;8.05;3.10;;;;;;;3.41;77.37;97111.72;4125928;28;20334;-57
2022/01/09 08:02:49;;;;;;;9.63;3.13;;;;;;;3.40;78.11;97124.41;4123421;28;20214;-57
2022/01/09 08:04:51;;;;;;;6.53;3.05;;;;;;;3.41;77.95;97128.75;4108179;28;20580;-56
2022/01/09 08:06:52;;;;;;;10.95;3.45;;;;;;;3.48;77.36;97129.44;4112796;28;20270;-57
2022/01/09 08:08:54;;;;;;;5.25;2.17;;;;;;;3.52;77.63;97136.03;4110967;28;20242;-56
2022/01/09 08:10:56;;;;;;;4.28;2.88;;;;;;;3.52;76.76;97146.84;4110866;28;20246;-58
2022/01/09 08:12:59;;;;;;;14.23;3.13;;;;;;;3.42;77.50;97146.66;4109652;28;20249;-55
2022/01/09 08:15:01;;;;;;;9.10;3.03;;;;;;;3.48;76.70;97145.66;4111900;28;20780;-56
2022/01/09 08:17:03;;;;;;;5.97;2.42;;;;;;;3.52;76.80;97154.13;4107064;28;20673;-58
2022/01/09 08:19:05;;;;;;;6.20;2.25;;;;;;;3.49;76.23;97151.91;4107578;28;20239;-56
2022/01/09 08:21:06;;;;;;;6.88;2.42;;;;;;;3.45;77.28;97165.06;4094675;28;20208;-58
2022/01/09 08:23:08;;;;;;;7.28;2.75;;;;;;;3.48;76.35;97158.38;4125978;28;20210;-57
2022/01/09 08:25:11;;;;;;;4.88;2.20;;;;;;;3.49;76.09;97171.66;4124630;28;20676;-57
2022/01/09 08:27:13;;;;;;;14.23;3.30;;;;;;;3.50;76.23;97167.91;4110128;28;20337;-57
2022/01/09 08:29:15;;;;;;;5.57;2.22;;;;;;;3.55;76.39;97172.59;4108717;28;20284;-58
2022/01/09 08:31:18;;;;;;;10.23;2.75;;;;;;;3.52;76.49;97173.88;4109923;28;20258;-56
2022/01/09 08:33:24;;;;;;;6.95;2.53;;;;;;;3.55;76.54;97173.38;4123189;28;20302;-58
2022/01/09 08:35:25;;;;;;;2.72;2.05;;;;;;;3.67;75.77;97176.88;4109293;28;20290;-56
2022/01/09 08:37:27;;;;;;;8.35;2.92;;;;;;;3.59;76.32;97185.38;4123422;28;20248;-58
2022/01/09 08:39:30;;;;;;;8.75;3.95;;;;;;;3.64;75.95;97192.78;4127315;28;20222;-58
2022/01/09 08:41:33;;;;;;;4.95;2.42;;;;;;;3.68;75.83;97200.16;4124049;28;20240;-55
2022/01/09 08:43:38;;;;;;;7.15;3.80;;;;;;;3.69;75.94;97206.41;4114554;28;20233;-57
2022/01/09 08:45:40;;;;;;;4.07;2.22;;;;;;;3.67;75.27;97198.53;4114087;28;20214;-58
2022/01/09 08:47:42;;;;;;;11.80;2.53;;;;;;;3.66;75.83;97207.69;4094386;28;20259;-57
2022/01/09 08:49:44;;;;;;;7.47;1.85;;;;;;;3.66;75.94;97215.81;4097443;28;20231;-57
2022/01/09 08:51:46;;;;;;;6.18;2.53;;;;;;;3.68;76.28;97205.56;4113174;28;20273;-58
2022/01/09 08:53:50;;;;;;;4.65;2.08;;;;;;;3.73;75.92;97216.50;4127142;28;20272;-57
2022/01/09 08:55:52;;;;;;;10.68;2.75;;;;;;;3.70;76.29;97216.16;4113298;28;20210;-58
2022/01/09 08:57:57;;;;;;;9.52;3.40;;;;;;;3.72;76.20;97216.72;4090590;28;20207;-58
2022/01/09 08:59:58;;;;;;;11.68;2.97;;;;;;;3.72;75.63;97212.16;4109280;28;20234;-58
2022/01/09 09:02:00;;;;;;;5.50;2.28;;;;;;;3.62;75.95;97211.97;4125751;28;20206;-57
2022/01/09 09:04:02;;;;;;;6.85;1.95;;;;;;;3.74;75.50;97214.63;4110514;28;20222;-57
2022/01/09 09:06:04;;;;;;;5.80;2.15;;;;;;;3.70;76.32;97224.28;4111214;28;20265;-57
2022/01/09 09:08:06;;;;;;;8.77;2.38;;;;;;;3.73;75.83;97221.09;4128851;28;20222;-55
2022/01/09 09:10:09;;;;;;;7.63;2.22;;;;;;;3.73;75.60;97235.44;4096272;29;20303;-57
2022/01/09 09:12:11;;;;;;;5.63;2.95;;;;;;;3.78;75.22;97224.72;4113842;28;20199;-55
2022/01/09 09:14:13;;;;;;;16.55;3.08;;;;;;;3.82;75.42;97239.44;4109296;28;20206;-55
2022/01/09 09:16:15;;;;;;;9.82;3.42;;;;;;;3.81;76.40;97229.66;4113092;28;20636;-57
2022/01/09 09:18:17;;;;;;;12.70;2.67;;;;;;;3.85;75.90;97233.53;4112354;28;20326;-58
2022/01/09 09:20:19;;;;;;;5.38;2.33;;;;;;;3.83;75.89;97235.66;4128361;28;20238;-58
2022/01/09 09:22:20;;;;;;;7.82;2.10;;;;;;;3.93;75.72;97241.25;4093579;28;20204;-58
2022/01/09 09:24:22;;;;;;;11.07;2.88;;;;;;;3.93;75.28;97241.25;4112973;28;20241;-56
2022/01/09 09:26:24;;;;;;;12.48;2.88;;;;;;;4.01;75.25;97249.00;4110799;28;20246;-59
2022/01/09 09:28:26;;;;;;;7.90;2.97;;;;;;;3.94;75.60;97252.91;4112836;28;20198;-58
2022/01/09 09:30:28;;;;;;;8.27;3.28;;;;;;;4.00;75.65;97258.19;4128775;28;20265;-58
2022/01/09 09:32:31;;;;;;;7.65;2.95;;;;;;;4.02;75.20;97261.50;4108406;28;20904;-57
2022/01/09 09:34:33;;;;;;;10.45;2.58;;;;;;;3.98;75.79;97260.31;4093465;28;20207;-58
2022/01/09 09:36:35;;;;;;;12.32;3.13;;;;;;;4.04;75.85;97270.19;4124171;28;20218;-57
2022/01/09 09:38:37;;;;;;;13.00;3.10;;;;;;;4.06;75.60;97267.25;4123818;28;20889;-58
2022/01/09 09:40:39;;;;;;;7.43;2.78;;;;;;;4.03;75.78;97273.13;4108332;28;20214;-58
2022/01/09 09:42:41;;;;;;;4.03;1.88;;;;;;;4.01;75.45;97273.34;4088300;28;20262;-57
2022/01/09 09:44:43;;;;;;;7.97;2.10;;;;;;;4.24;76.01;97281.41;4124387;28;20309;-57
2022/01/09 09:46:49;;;;;;;3.15;2.17;;;;;;;4.29;74.98;97283.41;4110369;28;20550;-57